sensor_id;sensor_type;location;lat;lon;timestamp;P1;durP1;ratioP1;P2;durP2;ratioP2
11614;SDS011;5863;52.832;4.758;2023-12-04T00:02:05;17.07;;;10.57;;
11614;SDS011;5863;52.832;4.758;2023-12-04T00:04:31;19.50;;;11.47;;
11614;SDS011;5863;52.832;4.758;2023-12-04T00:06:58;18.60;;;11.50;;
11614;SDS011;5863;52.832;4.758;2023-12-04T00:09:25;18.57;;;11.20;;
11614;SDS011;5863;52.832;4.758;2023-12-04T00:11:52;16.73;;;10.73;;
11614;SDS011;5863;52.832;4.758;2023-12-04T00:14:19;18.70;;;11.50;;
11614;SDS011;5863;52.832;4.758;2023-12-04T00:16:46;17.40;;;11.27;;
11614;SDS011;5863;52.832;4.758;2023-12-04T00:19:14;19.10;;;10.97;;
11614;SDS011;5863;52.832;4.758;2023-12-04T00:21:41;19.77;;;11.70;;
11614;SDS011;5863;52.832;4.758;2023-12-04T00:24:08;18.40;;;11.20;;
11614;SDS011;5863;52.832;4.758;2023-12-04T00:26:34;19.40;;;11.43;;
11614;SDS011;5863;52.832;4.758;2023-12-04T00:29:01;19.57;;;11.90;;
11614;SDS011;5863;52.832;4.758;2023-12-04T00:31:28;19.97;;;11.70;;
11614;SDS011;5863;52.832;4.758;2023-12-04T00:33:56;17.13;;;10.80;;
11614;SDS011;5863;52.832;4.758;2023-12-04T00:36:24;19.00;;;12.17;;
11614;SDS011;5863;52.832;4.758;2023-12-04T00:38:52;20.00;;;11.40;;
11614;SDS011;5863;52.832;4.758;2023-12-04T00:41:19;18.20;;;11.43;;
11614;SDS011;5863;52.832;4.758;2023-12-04T00:43:46;17.43;;;10.63;;
11614;SDS011;5863;52.832;4.758;2023-12-04T00:46:12;18.17;;;11.60;;
11614;SDS011;5863;52.832;4.758;2023-12-04T00:48:39;17.40;;;11.03;;
11614;SDS011;5863;52.832;4.758;2023-12-04T00:51:06;20.07;;;12.10;;
11614;SDS011;5863;52.832;4.758;2023-12-04T00:53:35;20.20;;;11.13;;
11614;SDS011;5863;52.832;4.758;2023-12-04T00:56:01;17.20;;;10.83;;
11614;SDS011;5863;52.832;4.758;2023-12-04T00:58:29;18.00;;;10.73;;
11614;SDS011;5863;52.832;4.758;2023-12-04T01:00:55;16.90;;;10.80;;
11614;SDS011;5863;52.832;4.758;2023-12-04T01:03:23;17.43;;;10.30;;
11614;SDS011;5863;52.832;4.758;2023-12-04T01:05:51;16.77;;;9.80;;
11614;SDS011;5863;52.832;4.758;2023-12-04T01:08:18;16.97;;;11.00;;
11614;SDS011;5863;52.832;4.758;2023-12-04T01:10:46;18.30;;;11.33;;
11614;SDS011;5863;52.832;4.758;2023-12-04T01:13:13;16.30;;;10.63;;
11614;SDS011;5863;52.832;4.758;2023-12-04T01:15:40;19.57;;;11.10;;
11614;SDS011;5863;52.832;4.758;2023-12-04T01:18:07;17.20;;;10.97;;
11614;SDS011;5863;52.832;4.758;2023-12-04T01:20:34;13.80;;;9.77;;
11614;SDS011;5863;52.832;4.758;2023-12-04T01:23:01;19.57;;;10.63;;
11614;SDS011;5863;52.832;4.758;2023-12-04T01:25:28;18.83;;;10.73;;
11614;SDS011;5863;52.832;4.758;2023-12-04T01:27:56;15.47;;;9.90;;
11614;SDS011;5863;52.832;4.758;2023-12-04T01:30:23;14.50;;;9.43;;
11614;SDS011;5863;52.832;4.758;2023-12-04T01:32:50;17.10;;;10.60;;
11614;SDS011;5863;52.832;4.758;2023-12-04T01:35:17;16.60;;;10.47;;
11614;SDS011;5863;52.832;4.758;2023-12-04T01:37:44;16.90;;;10.10;;
11614;SDS011;5863;52.832;4.758;2023-12-04T01:40:11;17.50;;;10.10;;
11614;SDS011;5863;52.832;4.758;2023-12-04T01:42:38;16.73;;;10.30;;
11614;SDS011;5863;52.832;4.758;2023-12-04T01:45:07;18.10;;;10.03;;
11614;SDS011;5863;52.832;4.758;2023-12-04T01:47:34;15.53;;;10.13;;
11614;SDS011;5863;52.832;4.758;2023-12-04T01:50:01;15.30;;;9.33;;
11614;SDS011;5863;52.832;4.758;2023-12-04T01:52:29;14.97;;;10.20;;
11614;SDS011;5863;52.832;4.758;2023-12-04T01:54:56;18.27;;;9.93;;
11614;SDS011;5863;52.832;4.758;2023-12-04T01:57:23;17.70;;;10.30;;
11614;SDS011;5863;52.832;4.758;2023-12-04T01:59:50;15.83;;;9.90;;
11614;SDS011;5863;52.832;4.758;2023-12-04T02:02:19;18.17;;;10.73;;
11614;SDS011;5863;52.832;4.758;2023-12-04T02:04:46;16.60;;;9.77;;
11614;SDS011;5863;52.832;4.758;2023-12-04T02:07:13;16.70;;;10.00;;
11614;SDS011;5863;52.832;4.758;2023-12-04T02:09:40;18.13;;;9.83;;
11614;SDS011;5863;52.832;4.758;2023-12-04T02:12:07;18.90;;;10.57;;
11614;SDS011;5863;52.832;4.758;2023-12-04T02:14:34;19.60;;;10.27;;
11614;SDS011;5863;52.832;4.758;2023-12-04T02:17:01;18.30;;;10.30;;
11614;SDS011;5863;52.832;4.758;2023-12-04T02:19:33;16.23;;;10.07;;
11614;SDS011;5863;52.832;4.758;2023-12-04T02:22:00;17.70;;;9.77;;
11614;SDS011;5863;52.832;4.758;2023-12-04T02:24:28;16.50;;;9.63;;
11614;SDS011;5863;52.832;4.758;2023-12-04T02:26:59;16.93;;;10.30;;
11614;SDS011;5863;52.832;4.758;2023-12-04T02:29:35;19.60;;;10.57;;
11614;SDS011;5863;52.832;4.758;2023-12-04T02:32:08;15.63;;;9.73;;
11614;SDS011;5863;52.832;4.758;2023-12-04T02:34:40;15.53;;;9.47;;
11614;SDS011;5863;52.832;4.758;2023-12-04T02:37:09;15.70;;;9.37;;
11614;SDS011;5863;52.832;4.758;2023-12-04T02:39:39;14.50;;;9.17;;
11614;SDS011;5863;52.832;4.758;2023-12-04T02:42:06;15.70;;;9.47;;
11614;SDS011;5863;52.832;4.758;2023-12-04T02:44:33;19.00;;;10.33;;
11614;SDS011;5863;52.832;4.758;2023-12-04T02:47:00;17.47;;;10.43;;
11614;SDS011;5863;52.832;4.758;2023-12-04T02:49:27;17.23;;;9.93;;
11614;SDS011;5863;52.832;4.758;2023-12-04T02:51:54;17.30;;;10.47;;
11614;SDS011;5863;52.832;4.758;2023-12-04T02:54:22;17.33;;;10.50;;
11614;SDS011;5863;52.832;4.758;2023-12-04T02:56:50;21.83;;;10.60;;
11614;SDS011;5863;52.832;4.758;2023-12-04T02:59:17;16.87;;;10.30;;
11614;SDS011;5863;52.832;4.758;2023-12-04T03:01:44;15.63;;;10.17;;
11614;SDS011;5863;52.832;4.758;2023-12-04T03:04:11;16.53;;;10.93;;
11614;SDS011;5863;52.832;4.758;2023-12-04T03:06:38;14.13;;;9.63;;
11614;SDS011;5863;52.832;4.758;2023-12-04T03:09:05;19.07;;;10.70;;
11614;SDS011;5863;52.832;4.758;2023-12-04T03:11:32;16.03;;;10.23;;
11614;SDS011;5863;52.832;4.758;2023-12-04T03:14:00;18.07;;;11.27;;
11614;SDS011;5863;52.832;4.758;2023-12-04T03:16:27;15.03;;;9.93;;
11614;SDS011;5863;52.832;4.758;2023-12-04T03:18:54;16.53;;;10.57;;
11614;SDS011;5863;52.832;4.758;2023-12-04T03:21:21;16.87;;;10.10;;
11614;SDS011;5863;52.832;4.758;2023-12-04T03:23:48;16.07;;;10.20;;
11614;SDS011;5863;52.832;4.758;2023-12-04T03:26:15;17.23;;;9.87;;
11614;SDS011;5863;52.832;4.758;2023-12-04T03:28:42;18.03;;;10.30;;
11614;SDS011;5863;52.832;4.758;2023-12-04T03:31:10;16.47;;;10.33;;
11614;SDS011;5863;52.832;4.758;2023-12-04T03:33:37;16.57;;;9.73;;
11614;SDS011;5863;52.832;4.758;2023-12-04T03:36:05;16.03;;;9.87;;
11614;SDS011;5863;52.832;4.758;2023-12-04T03:38:32;16.83;;;10.23;;
11614;SDS011;5863;52.832;4.758;2023-12-04T03:40:59;17.73;;;9.80;;
11614;SDS011;5863;52.832;4.758;2023-12-04T03:43:26;15.60;;;9.80;;
11614;SDS011;5863;52.832;4.758;2023-12-04T03:45:53;16.53;;;9.77;;
11614;SDS011;5863;52.832;4.758;2023-12-04T03:48:21;19.23;;;10.57;;
11614;SDS011;5863;52.832;4.758;2023-12-04T03:50:48;20.73;;;10.90;;
11614;SDS011;5863;52.832;4.758;2023-12-04T03:53:14;18.10;;;10.30;;
11614;SDS011;5863;52.832;4.758;2023-12-04T03:55:41;16.77;;;10.20;;
11614;SDS011;5863;52.832;4.758;2023-12-04T03:58:08;16.20;;;9.93;;
11614;SDS011;5863;52.832;4.758;2023-12-04T04:00:35;18.93;;;9.80;;
11614;SDS011;5863;52.832;4.758;2023-12-04T04:03:06;17.70;;;10.27;;
11614;SDS011;5863;52.832;4.758;2023-12-04T04:05:34;17.60;;;10.20;;
11614;SDS011;5863;52.832;4.758;2023-12-04T04:08:01;15.53;;;9.67;;
11614;SDS011;5863;52.832;4.758;2023-12-04T04:10:28;15.60;;;9.77;;
11614;SDS011;5863;52.832;4.758;2023-12-04T04:12:55;19.23;;;10.70;;
11614;SDS011;5863;52.832;4.758;2023-12-04T04:15:22;15.27;;;9.80;;
11614;SDS011;5863;52.832;4.758;2023-12-04T04:17:49;17.20;;;9.80;;
11614;SDS011;5863;52.832;4.758;2023-12-04T04:20:16;18.73;;;10.57;;
11614;SDS011;5863;52.832;4.758;2023-12-04T04:22:44;17.67;;;10.67;;
11614;SDS011;5863;52.832;4.758;2023-12-04T04:25:11;16.23;;;9.63;;
11614;SDS011;5863;52.832;4.758;2023-12-04T04:27:38;15.90;;;10.73;;
11614;SDS011;5863;52.832;4.758;2023-12-04T04:30:06;18.13;;;10.60;;
11614;SDS011;5863;52.832;4.758;2023-12-04T04:32:33;19.03;;;10.93;;
11614;SDS011;5863;52.832;4.758;2023-12-04T04:35:00;17.47;;;10.13;;
11614;SDS011;5863;52.832;4.758;2023-12-04T04:37:28;17.07;;;10.53;;
11614;SDS011;5863;52.832;4.758;2023-12-04T04:39:56;17.80;;;10.73;;
11614;SDS011;5863;52.832;4.758;2023-12-04T04:42:23;16.63;;;10.07;;
11614;SDS011;5863;52.832;4.758;2023-12-04T04:44:49;17.43;;;10.70;;
11614;SDS011;5863;52.832;4.758;2023-12-04T04:47:16;18.37;;;10.53;;
11614;SDS011;5863;52.832;4.758;2023-12-04T04:49:43;17.07;;;10.10;;
11614;SDS011;5863;52.832;4.758;2023-12-04T04:52:10;16.93;;;10.30;;
11614;SDS011;5863;52.832;4.758;2023-12-04T04:54:37;15.73;;;10.03;;
11614;SDS011;5863;52.832;4.758;2023-12-04T04:57:05;17.40;;;10.47;;
11614;SDS011;5863;52.832;4.758;2023-12-04T04:59:33;15.50;;;9.53;;
11614;SDS011;5863;52.832;4.758;2023-12-04T05:02:00;19.07;;;10.00;;
11614;SDS011;5863;52.832;4.758;2023-12-04T05:04:27;17.20;;;10.30;;
11614;SDS011;5863;52.832;4.758;2023-12-04T05:06:54;16.37;;;9.80;;
11614;SDS011;5863;52.832;4.758;2023-12-04T05:09:21;15.03;;;9.80;;
11614;SDS011;5863;52.832;4.758;2023-12-04T05:11:48;16.03;;;10.10;;
11614;SDS011;5863;52.832;4.758;2023-12-04T05:14:16;20.87;;;11.17;;
11614;SDS011;5863;52.832;4.758;2023-12-04T05:16:43;21.83;;;11.63;;
11614;SDS011;5863;52.832;4.758;2023-12-04T05:19:09;17.40;;;10.13;;
11614;SDS011;5863;52.832;4.758;2023-12-04T05:21:36;15.23;;;9.50;;
11614;SDS011;5863;52.832;4.758;2023-12-04T05:24:03;16.40;;;10.53;;
11614;SDS011;5863;52.832;4.758;2023-12-04T05:26:30;18.87;;;10.57;;
11614;SDS011;5863;52.832;4.758;2023-12-04T05:28:57;17.27;;;10.50;;
11614;SDS011;5863;52.832;4.758;2023-12-04T05:31:26;18.50;;;10.50;;
11614;SDS011;5863;52.832;4.758;2023-12-04T05:33:52;18.13;;;10.93;;
11614;SDS011;5863;52.832;4.758;2023-12-04T05:36:19;17.63;;;10.50;;
11614;SDS011;5863;52.832;4.758;2023-12-04T05:38:46;15.47;;;10.27;;
11614;SDS011;5863;52.832;4.758;2023-12-04T05:41:13;16.23;;;10.50;;
11614;SDS011;5863;52.832;4.758;2023-12-04T05:43:40;18.17;;;10.17;;
11614;SDS011;5863;52.832;4.758;2023-12-04T05:46:07;16.30;;;9.73;;
11614;SDS011;5863;52.832;4.758;2023-12-04T05:48:35;15.63;;;9.57;;
11614;SDS011;5863;52.832;4.758;2023-12-04T05:51:02;15.00;;;9.57;;
11614;SDS011;5863;52.832;4.758;2023-12-04T05:53:29;19.27;;;10.40;;
11614;SDS011;5863;52.832;4.758;2023-12-04T05:55:56;14.87;;;9.43;;
11614;SDS011;5863;52.832;4.758;2023-12-04T05:58:23;14.43;;;9.27;;
11614;SDS011;5863;52.832;4.758;2023-12-04T06:00:50;17.20;;;9.83;;
11614;SDS011;5863;52.832;4.758;2023-12-04T06:03:16;18.33;;;10.10;;
11614;SDS011;5863;52.832;4.758;2023-12-04T06:05:45;19.67;;;10.67;;
11614;SDS011;5863;52.832;4.758;2023-12-04T06:08:11;16.63;;;10.00;;
11614;SDS011;5863;52.832;4.758;2023-12-04T06:10:38;19.93;;;10.53;;
11614;SDS011;5863;52.832;4.758;2023-12-04T06:13:05;15.73;;;9.80;;
11614;SDS011;5863;52.832;4.758;2023-12-04T06:15:32;15.93;;;9.90;;
11614;SDS011;5863;52.832;4.758;2023-12-04T06:17:59;15.27;;;9.57;;
11614;SDS011;5863;52.832;4.758;2023-12-04T06:20:26;17.20;;;9.87;;
11614;SDS011;5863;52.832;4.758;2023-12-04T06:22:55;16.37;;;9.97;;
11614;SDS011;5863;52.832;4.758;2023-12-04T06:25:22;16.57;;;9.87;;
11614;SDS011;5863;52.832;4.758;2023-12-04T06:27:49;14.43;;;9.27;;
11614;SDS011;5863;52.832;4.758;2023-12-04T06:30:17;15.40;;;9.20;;
11614;SDS011;5863;52.832;4.758;2023-12-04T06:32:45;15.77;;;10.50;;
11614;SDS011;5863;52.832;4.758;2023-12-04T06:35:13;15.00;;;9.30;;
11614;SDS011;5863;52.832;4.758;2023-12-04T06:37:41;14.50;;;9.57;;
11614;SDS011;5863;52.832;4.758;2023-12-04T06:40:10;17.10;;;10.17;;
11614;SDS011;5863;52.832;4.758;2023-12-04T06:42:38;15.50;;;9.90;;
11614;SDS011;5863;52.832;4.758;2023-12-04T06:45:06;14.77;;;9.40;;
11614;SDS011;5863;52.832;4.758;2023-12-04T06:47:34;14.23;;;9.00;;
11614;SDS011;5863;52.832;4.758;2023-12-04T06:50:02;15.80;;;9.83;;
11614;SDS011;5863;52.832;4.758;2023-12-04T06:52:29;14.33;;;9.23;;
11614;SDS011;5863;52.832;4.758;2023-12-04T06:54:56;15.70;;;9.70;;
11614;SDS011;5863;52.832;4.758;2023-12-04T06:57:24;17.33;;;10.07;;
11614;SDS011;5863;52.832;4.758;2023-12-04T06:59:52;15.60;;;9.73;;
11614;SDS011;5863;52.832;4.758;2023-12-04T07:02:19;17.97;;;10.00;;
11614;SDS011;5863;52.832;4.758;2023-12-04T07:04:46;14.17;;;8.67;;
11614;SDS011;5863;52.832;4.758;2023-12-04T07:07:13;13.53;;;8.53;;
11614;SDS011;5863;52.832;4.758;2023-12-04T07:09:39;14.77;;;8.57;;
11614;SDS011;5863;52.832;4.758;2023-12-04T07:12:06;14.83;;;9.43;;
11614;SDS011;5863;52.832;4.758;2023-12-04T07:14:35;15.43;;;9.83;;
11614;SDS011;5863;52.832;4.758;2023-12-04T07:17:02;15.93;;;9.20;;
11614;SDS011;5863;52.832;4.758;2023-12-04T07:19:29;14.83;;;9.40;;
11614;SDS011;5863;52.832;4.758;2023-12-04T07:21:55;13.57;;;8.80;;
11614;SDS011;5863;52.832;4.758;2023-12-04T07:24:23;14.77;;;9.47;;
11614;SDS011;5863;52.832;4.758;2023-12-04T07:26:51;14.40;;;9.40;;
11614;SDS011;5863;52.832;4.758;2023-12-04T07:29:18;13.93;;;9.17;;
11614;SDS011;5863;52.832;4.758;2023-12-04T07:31:46;14.87;;;8.80;;
11614;SDS011;5863;52.832;4.758;2023-12-04T07:34:13;14.00;;;9.40;;
11614;SDS011;5863;52.832;4.758;2023-12-04T07:36:40;16.77;;;9.43;;
11614;SDS011;5863;52.832;4.758;2023-12-04T07:39:09;14.23;;;8.97;;
11614;SDS011;5863;52.832;4.758;2023-12-04T07:41:36;14.97;;;9.37;;
11614;SDS011;5863;52.832;4.758;2023-12-04T07:44:03;14.53;;;8.53;;
11614;SDS011;5863;52.832;4.758;2023-12-04T07:46:30;16.63;;;9.37;;
11614;SDS011;5863;52.832;4.758;2023-12-04T07:48:58;12.60;;;8.87;;
11614;SDS011;5863;52.832;4.758;2023-12-04T07:51:25;14.17;;;9.20;;
11614;SDS011;5863;52.832;4.758;2023-12-04T07:53:52;13.83;;;9.03;;
11614;SDS011;5863;52.832;4.758;2023-12-04T07:56:19;13.57;;;8.80;;
11614;SDS011;5863;52.832;4.758;2023-12-04T07:58:46;13.93;;;8.83;;
11614;SDS011;5863;52.832;4.758;2023-12-04T08:01:13;13.27;;;8.60;;
11614;SDS011;5863;52.832;4.758;2023-12-04T08:03:40;13.47;;;8.90;;
11614;SDS011;5863;52.832;4.758;2023-12-04T08:06:09;12.70;;;8.10;;
11614;SDS011;5863;52.832;4.758;2023-12-04T08:08:37;12.13;;;8.03;;
11614;SDS011;5863;52.832;4.758;2023-12-04T08:11:04;14.87;;;9.30;;
11614;SDS011;5863;52.832;4.758;2023-12-04T08:13:31;13.20;;;7.93;;
11614;SDS011;5863;52.832;4.758;2023-12-04T08:15:57;14.10;;;8.17;;
11614;SDS011;5863;52.832;4.758;2023-12-04T08:18:25;14.57;;;9.00;;
11614;SDS011;5863;52.832;4.758;2023-12-04T08:20:54;12.53;;;8.90;;
11614;SDS011;5863;52.832;4.758;2023-12-04T08:23:22;11.77;;;8.17;;
11614;SDS011;5863;52.832;4.758;2023-12-04T08:25:49;11.43;;;7.90;;
11614;SDS011;5863;52.832;4.758;2023-12-04T08:28:16;14.97;;;8.67;;
11614;SDS011;5863;52.832;4.758;2023-12-04T08:30:43;11.83;;;8.13;;
11614;SDS011;5863;52.832;4.758;2023-12-04T08:33:10;10.23;;;7.63;;
11614;SDS011;5863;52.832;4.758;2023-12-04T08:35:37;12.33;;;8.20;;
11614;SDS011;5863;52.832;4.758;2023-12-04T08:38:04;12.63;;;8.13;;
11614;SDS011;5863;52.832;4.758;2023-12-04T08:40:32;11.73;;;8.27;;
11614;SDS011;5863;52.832;4.758;2023-12-04T08:42:59;11.87;;;7.87;;
11614;SDS011;5863;52.832;4.758;2023-12-04T08:45:25;9.33;;;7.07;;
11614;SDS011;5863;52.832;4.758;2023-12-04T08:47:52;12.33;;;8.20;;
11614;SDS011;5863;52.832;4.758;2023-12-04T08:50:19;11.30;;;7.50;;
11614;SDS011;5863;52.832;4.758;2023-12-04T08:52:46;10.83;;;7.03;;
11614;SDS011;5863;52.832;4.758;2023-12-04T08:55:13;11.27;;;7.40;;
11614;SDS011;5863;52.832;4.758;2023-12-04T08:57:41;14.20;;;8.40;;
11614;SDS011;5863;52.832;4.758;2023-12-04T09:00:09;11.20;;;7.93;;
11614;SDS011;5863;52.832;4.758;2023-12-04T09:02:36;12.33;;;7.87;;
11614;SDS011;5863;52.832;4.758;2023-12-04T09:05:03;9.53;;;7.17;;
11614;SDS011;5863;52.832;4.758;2023-12-04T09:07:30;11.07;;;7.70;;
11614;SDS011;5863;52.832;4.758;2023-12-04T09:09:56;10.73;;;6.90;;
11614;SDS011;5863;52.832;4.758;2023-12-04T09:12:24;12.27;;;7.87;;
11614;SDS011;5863;52.832;4.758;2023-12-04T09:14:52;12.50;;;7.50;;
11614;SDS011;5863;52.832;4.758;2023-12-04T09:17:19;11.97;;;8.43;;
11614;SDS011;5863;52.832;4.758;2023-12-04T09:19:46;9.50;;;6.90;;
11614;SDS011;5863;52.832;4.758;2023-12-04T09:22:13;10.20;;;7.60;;
11614;SDS011;5863;52.832;4.758;2023-12-04T09:24:40;12.57;;;7.93;;
11614;SDS011;5863;52.832;4.758;2023-12-04T09:27:07;9.50;;;7.23;;
11614;SDS011;5863;52.832;4.758;2023-12-04T09:29:33;11.67;;;8.10;;
11614;SDS011;5863;52.832;4.758;2023-12-04T09:32:02;8.80;;;7.17;;
11614;SDS011;5863;52.832;4.758;2023-12-04T09:34:29;9.23;;;7.03;;
11614;SDS011;5863;52.832;4.758;2023-12-04T09:36:56;12.30;;;7.10;;
11614;SDS011;5863;52.832;4.758;2023-12-04T09:39:22;11.70;;;7.80;;
11614;SDS011;5863;52.832;4.758;2023-12-04T09:41:49;10.03;;;7.27;;
11614;SDS011;5863;52.832;4.758;2023-12-04T09:44:16;11.53;;;7.27;;
11614;SDS011;5863;52.832;4.758;2023-12-04T09:46:44;10.17;;;7.13;;
11614;SDS011;5863;52.832;4.758;2023-12-04T09:49:12;11.17;;;6.80;;
11614;SDS011;5863;52.832;4.758;2023-12-04T09:51:41;15.30;;;7.27;;
11614;SDS011;5863;52.832;4.758;2023-12-04T09:54:08;10.37;;;7.57;;
11614;SDS011;5863;52.832;4.758;2023-12-04T09:56:35;11.40;;;7.60;;
11614;SDS011;5863;52.832;4.758;2023-12-04T09:59:04;8.83;;;6.43;;
11614;SDS011;5863;52.832;4.758;2023-12-04T10:01:34;9.57;;;6.93;;
11614;SDS011;5863;52.832;4.758;2023-12-04T10:04:02;8.57;;;6.83;;
11614;SDS011;5863;52.832;4.758;2023-12-04T10:06:32;10.03;;;7.00;;
11614;SDS011;5863;52.832;4.758;2023-12-04T10:09:00;9.50;;;6.53;;
11614;SDS011;5863;52.832;4.758;2023-12-04T10:11:28;10.83;;;6.93;;
11614;SDS011;5863;52.832;4.758;2023-12-04T10:13:55;10.13;;;7.10;;
11614;SDS011;5863;52.832;4.758;2023-12-04T10:16:32;9.53;;;7.20;;
11614;SDS011;5863;52.832;4.758;2023-12-04T10:19:16;11.30;;;7.03;;
11614;SDS011;5863;52.832;4.758;2023-12-04T10:21:45;10.50;;;6.30;;
11614;SDS011;5863;52.832;4.758;2023-12-04T10:24:26;11.43;;;6.10;;
11614;SDS011;5863;52.832;4.758;2023-12-04T10:26:55;10.03;;;6.73;;
11614;SDS011;5863;52.832;4.758;2023-12-04T10:29:23;8.97;;;7.03;;
11614;SDS011;5863;52.832;4.758;2023-12-04T10:31:52;10.60;;;6.67;;
11614;SDS011;5863;52.832;4.758;2023-12-04T10:34:21;9.33;;;6.80;;
11614;SDS011;5863;52.832;4.758;2023-12-04T10:36:52;9.10;;;6.13;;
11614;SDS011;5863;52.832;4.758;2023-12-04T10:39:20;9.37;;;6.60;;
11614;SDS011;5863;52.832;4.758;2023-12-04T10:41:49;9.03;;;6.47;;
11614;SDS011;5863;52.832;4.758;2023-12-04T10:44:26;9.67;;;6.10;;
11614;SDS011;5863;52.832;4.758;2023-12-04T10:46:53;9.23;;;6.53;;
11614;SDS011;5863;52.832;4.758;2023-12-04T10:49:24;9.60;;;6.17;;
11614;SDS011;5863;52.832;4.758;2023-12-04T10:51:54;9.27;;;6.90;;
11614;SDS011;5863;52.832;4.758;2023-12-04T10:54:22;10.63;;;6.90;;
11614;SDS011;5863;52.832;4.758;2023-12-04T10:56:50;9.07;;;6.17;;
11614;SDS011;5863;52.832;4.758;2023-12-04T10:59:18;8.10;;;6.23;;
11614;SDS011;5863;52.832;4.758;2023-12-04T11:01:49;8.37;;;6.20;;
11614;SDS011;5863;52.832;4.758;2023-12-04T11:04:20;8.97;;;6.77;;
11614;SDS011;5863;52.832;4.758;2023-12-04T11:06:52;9.50;;;6.37;;
11614;SDS011;5863;52.832;4.758;2023-12-04T11:09:21;8.73;;;5.97;;
11614;SDS011;5863;52.832;4.758;2023-12-04T11:11:53;7.60;;;5.70;;
11614;SDS011;5863;52.832;4.758;2023-12-04T11:14:25;9.80;;;6.00;;
11614;SDS011;5863;52.832;4.758;2023-12-04T11:16:57;7.77;;;5.77;;
11614;SDS011;5863;52.832;4.758;2023-12-04T11:19:32;8.27;;;5.60;;
11614;SDS011;5863;52.832;4.758;2023-12-04T11:22:06;7.13;;;5.13;;
11614;SDS011;5863;52.832;4.758;2023-12-04T11:24:35;7.83;;;5.57;;
11614;SDS011;5863;52.832;4.758;2023-12-04T11:27:02;6.33;;;5.13;;
11614;SDS011;5863;52.832;4.758;2023-12-04T11:29:30;7.43;;;5.37;;
11614;SDS011;5863;52.832;4.758;2023-12-04T11:31:58;8.07;;;5.80;;
11614;SDS011;5863;52.832;4.758;2023-12-04T11:34:25;8.93;;;5.70;;
11614;SDS011;5863;52.832;4.758;2023-12-04T11:36:52;7.70;;;5.10;;
11614;SDS011;5863;52.832;4.758;2023-12-04T11:39:22;8.03;;;5.53;;
11614;SDS011;5863;52.832;4.758;2023-12-04T11:41:51;7.30;;;5.63;;
11614;SDS011;5863;52.832;4.758;2023-12-04T11:44:18;8.10;;;5.60;;
11614;SDS011;5863;52.832;4.758;2023-12-04T11:46:55;8.50;;;5.63;;
11614;SDS011;5863;52.832;4.758;2023-12-04T11:49:26;10.07;;;6.10;;
11614;SDS011;5863;52.832;4.758;2023-12-04T11:51:55;7.10;;;5.47;;
11614;SDS011;5863;52.832;4.758;2023-12-04T11:54:23;8.63;;;5.50;;
11614;SDS011;5863;52.832;4.758;2023-12-04T11:57:19;7.77;;;5.43;;
11614;SDS011;5863;52.832;4.758;2023-12-04T11:59:47;7.73;;;5.53;;
11614;SDS011;5863;52.832;4.758;2023-12-04T12:02:15;8.00;;;5.47;;
11614;SDS011;5863;52.832;4.758;2023-12-04T12:04:42;8.13;;;5.47;;
11614;SDS011;5863;52.832;4.758;2023-12-04T12:07:10;8.80;;;5.43;;
11614;SDS011;5863;52.832;4.758;2023-12-04T12:09:38;8.83;;;5.70;;
11614;SDS011;5863;52.832;4.758;2023-12-04T12:12:06;8.20;;;5.63;;
11614;SDS011;5863;52.832;4.758;2023-12-04T12:14:33;8.07;;;5.50;;
11614;SDS011;5863;52.832;4.758;2023-12-04T12:17:00;7.20;;;5.30;;
11614;SDS011;5863;52.832;4.758;2023-12-04T12:19:27;7.73;;;5.73;;
11614;SDS011;5863;52.832;4.758;2023-12-04T12:21:54;7.03;;;5.03;;
11614;SDS011;5863;52.832;4.758;2023-12-04T12:24:21;7.23;;;5.47;;
11614;SDS011;5863;52.832;4.758;2023-12-04T12:26:52;6.63;;;5.23;;
11614;SDS011;5863;52.832;4.758;2023-12-04T12:29:20;8.00;;;5.17;;
11614;SDS011;5863;52.832;4.758;2023-12-04T12:31:47;6.93;;;5.13;;
11614;SDS011;5863;52.832;4.758;2023-12-04T12:34:14;8.57;;;5.43;;
11614;SDS011;5863;52.832;4.758;2023-12-04T12:36:41;6.90;;;5.63;;
11614;SDS011;5863;52.832;4.758;2023-12-04T12:39:08;6.97;;;5.20;;
11614;SDS011;5863;52.832;4.758;2023-12-04T12:41:37;7.43;;;5.07;;
11614;SDS011;5863;52.832;4.758;2023-12-04T12:44:05;7.17;;;5.67;;
11614;SDS011;5863;52.832;4.758;2023-12-04T12:46:33;6.90;;;5.10;;
11614;SDS011;5863;52.832;4.758;2023-12-04T12:49:00;7.70;;;5.53;;
11614;SDS011;5863;52.832;4.758;2023-12-04T12:51:27;6.37;;;5.00;;
11614;SDS011;5863;52.832;4.758;2023-12-04T12:53:56;7.57;;;4.83;;
11614;SDS011;5863;52.832;4.758;2023-12-04T12:56:23;7.23;;;5.13;;
11614;SDS011;5863;52.832;4.758;2023-12-04T12:58:52;7.43;;;5.47;;
11614;SDS011;5863;52.832;4.758;2023-12-04T13:01:21;8.20;;;4.70;;
11614;SDS011;5863;52.832;4.758;2023-12-04T13:03:50;6.67;;;5.37;;
11614;SDS011;5863;52.832;4.758;2023-12-04T13:06:17;7.97;;;5.43;;
11614;SDS011;5863;52.832;4.758;2023-12-04T13:08:46;6.53;;;4.97;;
11614;SDS011;5863;52.832;4.758;2023-12-04T13:11:12;9.50;;;5.73;;
11614;SDS011;5863;52.832;4.758;2023-12-04T13:13:39;7.50;;;4.90;;
11614;SDS011;5863;52.832;4.758;2023-12-04T13:16:07;7.40;;;5.77;;
11614;SDS011;5863;52.832;4.758;2023-12-04T13:18:35;7.83;;;5.20;;
11614;SDS011;5863;52.832;4.758;2023-12-04T13:21:04;7.37;;;6.00;;
11614;SDS011;5863;52.832;4.758;2023-12-04T13:23:31;8.97;;;6.10;;
11614;SDS011;5863;52.832;4.758;2023-12-04T13:25:58;7.40;;;5.20;;
11614;SDS011;5863;52.832;4.758;2023-12-04T13:28:25;8.97;;;5.60;;
11614;SDS011;5863;52.832;4.758;2023-12-04T13:30:52;7.90;;;5.70;;
11614;SDS011;5863;52.832;4.758;2023-12-04T13:33:20;8.17;;;5.90;;
11614;SDS011;5863;52.832;4.758;2023-12-04T13:35:49;9.07;;;5.57;;
11614;SDS011;5863;52.832;4.758;2023-12-04T13:38:15;9.17;;;6.03;;
11614;SDS011;5863;52.832;4.758;2023-12-04T13:40:43;6.93;;;5.30;;
11614;SDS011;5863;52.832;4.758;2023-12-04T13:43:24;8.00;;;5.73;;
11614;SDS011;5863;52.832;4.758;2023-12-04T13:46:09;8.10;;;5.33;;
11614;SDS011;5863;52.832;4.758;2023-12-04T13:48:36;7.27;;;5.17;;
11614;SDS011;5863;52.832;4.758;2023-12-04T13:51:08;7.40;;;5.63;;
11614;SDS011;5863;52.832;4.758;2023-12-04T13:53:35;7.90;;;5.70;;
11614;SDS011;5863;52.832;4.758;2023-12-04T13:56:05;7.50;;;5.93;;
11614;SDS011;5863;52.832;4.758;2023-12-04T13:58:50;9.63;;;6.57;;
11614;SDS011;5863;52.832;4.758;2023-12-04T14:01:21;8.07;;;5.40;;
11614;SDS011;5863;52.832;4.758;2023-12-04T14:03:51;8.87;;;6.13;;
11614;SDS011;5863;52.832;4.758;2023-12-04T14:06:20;9.53;;;5.80;;
11614;SDS011;5863;52.832;4.758;2023-12-04T14:08:47;8.53;;;6.20;;
11614;SDS011;5863;52.832;4.758;2023-12-04T14:11:14;10.23;;;5.87;;
11614;SDS011;5863;52.832;4.758;2023-12-04T14:13:40;9.67;;;6.33;;
11614;SDS011;5863;52.832;4.758;2023-12-04T14:16:08;7.23;;;5.57;;
11614;SDS011;5863;52.832;4.758;2023-12-04T14:18:35;9.27;;;6.80;;
11614;SDS011;5863;52.832;4.758;2023-12-04T14:21:02;9.07;;;6.50;;
11614;SDS011;5863;52.832;4.758;2023-12-04T14:23:31;7.90;;;6.27;;
11614;SDS011;5863;52.832;4.758;2023-12-04T14:25:58;8.73;;;6.77;;
11614;SDS011;5863;52.832;4.758;2023-12-04T14:28:26;8.63;;;6.63;;
11614;SDS011;5863;52.832;4.758;2023-12-04T14:30:53;8.20;;;6.17;;
11614;SDS011;5863;52.832;4.758;2023-12-04T14:33:20;9.03;;;6.67;;
11614;SDS011;5863;52.832;4.758;2023-12-04T14:35:47;10.47;;;6.40;;
11614;SDS011;5863;52.832;4.758;2023-12-04T14:38:13;10.70;;;7.27;;
11614;SDS011;5863;52.832;4.758;2023-12-04T14:40:42;9.23;;;6.97;;
11614;SDS011;5863;52.832;4.758;2023-12-04T14:43:09;9.37;;;6.87;;
11614;SDS011;5863;52.832;4.758;2023-12-04T14:45:37;8.27;;;7.23;;
11614;SDS011;5863;52.832;4.758;2023-12-04T14:48:04;9.97;;;6.93;;
11614;SDS011;5863;52.832;4.758;2023-12-04T14:50:32;9.43;;;7.50;;
11614;SDS011;5863;52.832;4.758;2023-12-04T14:53:00;9.80;;;7.40;;